Macellan — TCUX8 — position and weather

sailwx.info

Track history (hours):
 
Tides and Currents Weather Stations Pressure Air Temp Water Temp Dewpoint Dewpoint Depression Visibility Wind Speed Wind Dir Waves Ship Positions

Macellan

Last reported at 2017-Sep-22 01:56 UTC. Time now 2017-Sep-23 00:32 UTC.
Position N 36°36' E 030°34'.

Length 30 m.

Type: Passenger vessel. MMSI: 271043247.

Date/timePositionNaut miles runAvg speedWind from/ knotsBaromVisibWave heightAir tempDewpointWater temp
2017-Sep-22 01:56N 36°36' E 030°34'0 0.0
2017-Sep-22 01:29N 36°36' E 030°34'0 0.0
2017-Sep-22 00:47N 36°36' E 030°34'0 0.0
2017-Sep-22 00:29N 36°36' E 030°34'0 0.0
2017-Sep-21 23:59N 36°36' E 030°34'0 0.0
2017-Sep-21 23:29N 36°36' E 030°34'0 0.0
2017-Sep-21 22:59N 36°36' E 030°34'0 0.0
2017-Sep-21 22:29N 36°36' E 030°34'0 0.0
2017-Sep-21 21:56N 36°36' E 030°34'0 0.0
2017-Sep-21 21:29N 36°36' E 030°34'0 0.0
2017-Sep-21 20:59N 36°36' E 030°34'0 0.0
2017-Sep-21 20:29N 36°36' E 030°34'0 0.0
2017-Sep-21 19:59N 36°36' E 030°34'0 0.0
2017-Sep-21 19:29N 36°36' E 030°34'0 0.0
2017-Sep-21 18:59N 36°36' E 030°34'0 0.0
2017-Sep-21 18:14N 36°36' E 030°34'0 0.0
2017-Sep-21 17:59N 36°36' E 030°34'0 0.0
2017-Sep-21 17:29N 36°36' E 030°34'0 0.0
2017-Sep-21 16:59N 36°36' E 030°34'0 0.0
2017-Sep-21 16:23N 36°36' E 030°34'0 0.0
2017-Sep-21 15:59N 36°36' E 030°34'0 0.0
2017-Sep-21 15:29N 36°36' E 030°34'0 0.0
2017-Sep-21 14:59N 36°36' E 030°34'0 0.0
2017-Sep-21 14:23N 36°36' E 030°34'0 0.0
2017-Sep-21 13:59N 36°36' E 030°34'0 0.0
2017-Sep-21 13:29N 36°36' E 030°34'0 0.0
2017-Sep-21 12:53N 36°36' E 030°34'0 0.8
2017-Sep-21 12:29N 36°36' E 030°35'0 0.7
2017-Sep-21 12:01N 36°36' E 030°35'0 0.0
2017-Sep-21 11:28N 36°36' E 030°35'1 2.0
2017-Sep-21 11:00N 36°35' E 030°36'3 6.3
2017-Sep-21 10:30N 36°32' E 030°34'0 0.3
2017-Sep-21 09:30N 36°32' E 030°34'4 2.1
2017-Sep-21 07:44N 36°36' E 030°36'1 4.6
2017-Sep-21 07:28N 36°36' E 030°34'0 0.0
2017-Sep-21 06:58N 36°36' E 030°34'0 0.0
2017-Sep-21 06:28N 36°36' E 030°34'0 0.0
2017-Sep-21 05:58N 36°36' E 030°34'0 0.0
2017-Sep-21 05:28N 36°36' E 030°34'0 0.0
2017-Sep-21 04:58N 36°36' E 030°34'0 0.0
2017-Sep-21 04:28N 36°36' E 030°34'0 0.0
2017-Sep-21 03:58N 36°36' E 030°34'0 0.0
2017-Sep-21 03:25N 36°36' E 030°34'0 0.0
2017-Sep-21 02:49N 36°36' E 030°34'0 0.0
2017-Sep-21 02:28N 36°36' E 030°34'0 0.0
2017-Sep-21 01:58N 36°36' E 030°34'0 0.0
2017-Sep-21 01:28N 36°36' E 030°34'0 0.0
2017-Sep-21 00:58N 36°36' E 030°34'0 0.0
2017-Sep-21 00:28N 36°36' E 030°34'0 0.0
2017-Sep-20 23:58N 36°36' E 030°34'0 0.0
2017-Sep-20 23:28N 36°36' E 030°34'0 0.0
2017-Sep-20 22:58N 36°36' E 030°34'0 0.0
2017-Sep-20 22:28N 36°36' E 030°34'0 0.0
2017-Sep-20 21:58N 36°36' E 030°34'0 0.0
2017-Sep-20 21:28N 36°36' E 030°34'0 0.0
2017-Sep-20 20:58N 36°36' E 030°34'0 0.0
2017-Sep-20 20:28N 36°36' E 030°34'0 0.0
2017-Sep-20 19:58N 36°36' E 030°34'0 0.0
2017-Sep-20 19:28N 36°36' E 030°34'0 0.0
2017-Sep-20 18:58N 36°36' E 030°34'  
2017-Sep-14 14:49N 36°36' E 030°34'0 0.0
2017-Sep-14 14:19N 36°36' E 030°34'0 0.0
2017-Sep-14 13:58N 36°36' E 030°34'0 0.0
2017-Sep-14 13:25N 36°36' E 030°34'0 0.0
2017-Sep-14 12:58N 36°36' E 030°34'0 0.7
2017-Sep-14 12:30N 36°36' E 030°35'1 1.6
2017-Sep-14 11:35N 36°35' E 030°35'1 7.2
2017-Sep-14 11:30N 36°34' E 030°35'3 2.1
2017-Sep-14 10:17N 36°32' E 030°34'1 0.4
2017-Sep-14 08:25N 36°32' E 030°34'4 7.7
2017-Sep-14 07:57N 36°36' E 030°36'1 2.1
2017-Sep-14 07:29N 36°36' E 030°34'0 0.0
2017-Sep-14 06:59N 36°36' E 030°34'0 0.0
2017-Sep-14 06:29N 36°36' E 030°34'0 0.0
2017-Sep-14 05:59N 36°36' E 030°34'0 0.0
2017-Sep-14 05:29N 36°36' E 030°34'0 0.0
2017-Sep-14 04:59N 36°36' E 030°34'0 0.0
2017-Sep-14 04:29N 36°36' E 030°34'0 0.0
2017-Sep-14 03:56N 36°36' E 030°34'0 0.0
2017-Sep-14 03:23N 36°36' E 030°34'0 0.0
2017-Sep-14 02:59N 36°36' E 030°34'0 0.0
2017-Sep-14 02:26N 36°36' E 030°34'0 0.0
2017-Sep-14 01:59N 36°36' E 030°34'0 0.0
2017-Sep-14 01:23N 36°36' E 030°34'0 0.0
2017-Sep-14 00:56N 36°36' E 030°34'0 0.0
2017-Sep-14 00:17N 36°36' E 030°34'0 0.0
2017-Sep-13 23:56N 36°36' E 030°34'0 0.0
2017-Sep-13 23:29N 36°36' E 030°34'0 0.0
2017-Sep-13 22:59N 36°36' E 030°34'0 0.0
2017-Sep-13 22:29N 36°36' E 030°34'0 0.0
2017-Sep-13 21:56N 36°36' E 030°34'0 0.0
2017-Sep-13 21:29N 36°36' E 030°34'0 0.0
2017-Sep-13 20:59N 36°36' E 030°34'0 0.0
2017-Sep-13 20:29N 36°36' E 030°34'0 0.0
2017-Sep-13 19:59N 36°36' E 030°34'0 0.0
2017-Sep-13 19:29N 36°36' E 030°34'0 0.0
2017-Sep-13 18:53N 36°36' E 030°34'0 0.0
2017-Sep-13 18:29N 36°36' E 030°34'0 0.0
2017-Sep-13 17:59N 36°36' E 030°34'0 0.0
2017-Sep-13 17:29N 36°36' E 030°34'0 0.0
2017-Sep-13 16:59N 36°36' E 030°34'0 0.0
2017-Sep-13 16:29N 36°36' E 030°34'0 0.0
2017-Sep-13 15:59N 36°36' E 030°34'0 0.0
2017-Sep-13 15:29N 36°36' E 030°34'0 0.0
2017-Sep-13 14:59N 36°36' E 030°34'0 0.0
2017-Sep-13 14:29N 36°36' E 030°34'0 0.0
2017-Sep-13 13:59N 36°36' E 030°34'0 0.0
2017-Sep-13 13:29N 36°36' E 030°34'0 0.0
2017-Sep-13 12:59N 36°36' E 030°34'0 0.4
2017-Sep-13 12:29N 36°36' E 030°35'1 2.9
2017-Sep-13 11:59N 36°35' E 030°35'0 0.1
2017-Sep-13 11:24N 36°35' E 030°35'2 5.1
2017-Sep-13 11:00N 36°33' E 030°35'1 0.9
2017-Sep-13 09:42N 36°32' E 030°34'1 4.2
2017-Sep-13 09:30N 36°31' E 030°34'1 0.8
2017-Sep-13 07:58N 36°33' E 030°34'3 7.4
2017-Sep-13 07:30N 36°36' E 030°36'1 1.5
2017-Sep-13 06:52N 36°36' E 030°34'0 0.0
2017-Sep-13 06:28N 36°36' E 030°34'0 0.0
2017-Sep-13 05:58N 36°36' E 030°34'0 0.0
2017-Sep-13 04:31N 36°36' E 030°34'0 0.0
2017-Sep-13 04:25N 36°36' E 030°34'0 0.0
2017-Sep-13 03:58N 36°36' E 030°34'0 0.0
2017-Sep-13 03:22N 36°36' E 030°34'0 0.0
2017-Sep-13 02:58N 36°36' E 030°34'0 0.0
2017-Sep-13 02:19N 36°36' E 030°34'0 0.0
2017-Sep-13 01:55N 36°36' E 030°34'0 0.0
2017-Sep-13 01:28N 36°36' E 030°34'0 0.0
2017-Sep-13 00:55N 36°36' E 030°34'0 0.0
2017-Sep-12 22:13N 36°36' E 030°34'0 0.0
2017-Sep-12 21:37N 36°36' E 030°34'0 0.0
2017-Sep-12 21:25N 36°36' E 030°34'0 0.0
2017-Sep-12 20:58N 36°36' E 030°34'0 0.0
2017-Sep-12 20:16N 36°36' E 030°34'0 0.0
2017-Sep-12 18:52N 36°36' E 030°34'0 0.0
2017-Sep-12 07:04N 36°36' E 030°34'0 0.0
2017-Sep-12 06:58N 36°36' E 030°34'0 0.0
2017-Sep-12 06:28N 36°36' E 030°34'0 0.0
2017-Sep-12 05:55N 36°36' E 030°34'0 0.0
2017-Sep-12 05:28N 36°36' E 030°34'0 0.0
2017-Sep-12 04:58N 36°36' E 030°34'0 0.0
2017-Sep-12 04:28N 36°36' E 030°34'0 0.0
2017-Sep-12 03:58N 36°36' E 030°34'0 0.0
2017-Sep-12 03:25N 36°36' E 030°34'0 0.0
2017-Sep-12 02:58N 36°36' E 030°34'0 0.0
2017-Sep-12 02:28N 36°36' E 030°34'0 0.0
2017-Sep-12 01:58N 36°36' E 030°34'  
Track history (hours):
 
Tides and Currents Weather Stations Pressure Air Temp Water Temp Dewpoint Dewpoint Depression Visibility Wind Speed Wind Dir Waves Ship Positions

Macellan

Last reported at 2017-Sep-22 01:56 UTC. Time now 2017-Sep-23 00:32 UTC.
Position N 36°36' E 030°34'.

Length 30 m.

Type: Passenger vessel. MMSI: 271043247.

Date/timePositionNaut miles runAvg speedWind from/ knotsBaromVisibWave heightAir tempDewpointWater temp
2017-Sep-22 01:56N 36°36' E 030°34'0 0.0
2017-Sep-22 01:29N 36°36' E 030°34'0 0.0
2017-Sep-22 00:47N 36°36' E 030°34'0 0.0
2017-Sep-22 00:29N 36°36' E 030°34'0 0.0
2017-Sep-21 23:59N 36°36' E 030°34'0 0.0
2017-Sep-21 23:29N 36°36' E 030°34'0 0.0
2017-Sep-21 22:59N 36°36' E 030°34'0 0.0
2017-Sep-21 22:29N 36°36' E 030°34'0 0.0
2017-Sep-21 21:56N 36°36' E 030°34'0 0.0
2017-Sep-21 21:29N 36°36' E 030°34'0 0.0
2017-Sep-21 20:59N 36°36' E 030°34'0 0.0
2017-Sep-21 20:29N 36°36' E 030°34'0 0.0
2017-Sep-21 19:59N 36°36' E 030°34'0 0.0
2017-Sep-21 19:29N 36°36' E 030°34'0 0.0
2017-Sep-21 18:59N 36°36' E 030°34'0 0.0
2017-Sep-21 18:14N 36°36' E 030°34'0 0.0
2017-Sep-21 17:59N 36°36' E 030°34'0 0.0
2017-Sep-21 17:29N 36°36' E 030°34'0 0.0
2017-Sep-21 16:59N 36°36' E 030°34'0 0.0
2017-Sep-21 16:23N 36°36' E 030°34'0 0.0
2017-Sep-21 15:59N 36°36' E 030°34'0 0.0
2017-Sep-21 15:29N 36°36' E 030°34'0 0.0
2017-Sep-21 14:59N 36°36' E 030°34'0 0.0
2017-Sep-21 14:23N 36°36' E 030°34'0 0.0
2017-Sep-21 13:59N 36°36' E 030°34'0 0.0
2017-Sep-21 13:29N 36°36' E 030°34'0 0.0
2017-Sep-21 12:53N 36°36' E 030°34'0 0.8
2017-Sep-21 12:29N 36°36' E 030°35'0 0.7
2017-Sep-21 12:01N 36°36' E 030°35'0 0.0
2017-Sep-21 11:28N 36°36' E 030°35'1 2.0
2017-Sep-21 11:00N 36°35' E 030°36'3 6.3
2017-Sep-21 10:30N 36°32' E 030°34'0 0.3
2017-Sep-21 09:30N 36°32' E 030°34'4 2.1
2017-Sep-21 07:44N 36°36' E 030°36'1 4.6
2017-Sep-21 07:28N 36°36' E 030°34'0 0.0
2017-Sep-21 06:58N 36°36' E 030°34'0 0.0
2017-Sep-21 06:28N 36°36' E 030°34'0 0.0
2017-Sep-21 05:58N 36°36' E 030°34'0 0.0
2017-Sep-21 05:28N 36°36' E 030°34'0 0.0
2017-Sep-21 04:58N 36°36' E 030°34'0 0.0
2017-Sep-21 04:28N 36°36' E 030°34'0 0.0
2017-Sep-21 03:58N 36°36' E 030°34'0 0.0
2017-Sep-21 03:25N 36°36' E 030°34'0 0.0
2017-Sep-21 02:49N 36°36' E 030°34'0 0.0
2017-Sep-21 02:28N 36°36' E 030°34'0 0.0
2017-Sep-21 01:58N 36°36' E 030°34'0 0.0
2017-Sep-21 01:28N 36°36' E 030°34'0 0.0
2017-Sep-21 00:58N 36°36' E 030°34'0 0.0
2017-Sep-21 00:28N 36°36' E 030°34'0 0.0
2017-Sep-20 23:58N 36°36' E 030°34'0 0.0
2017-Sep-20 23:28N 36°36' E 030°34'0 0.0
2017-Sep-20 22:58N 36°36' E 030°34'0 0.0
2017-Sep-20 22:28N 36°36' E 030°34'0 0.0
2017-Sep-20 21:58N 36°36' E 030°34'0 0.0
2017-Sep-20 21:28N 36°36' E 030°34'0 0.0
2017-Sep-20 20:58N 36°36' E 030°34'0 0.0
2017-Sep-20 20:28N 36°36' E 030°34'0 0.0
2017-Sep-20 19:58N 36°36' E 030°34'0 0.0
2017-Sep-20 19:28N 36°36' E 030°34'0 0.0
2017-Sep-20 18:58N 36°36' E 030°34'  
2017-Sep-14 14:49N 36°36' E 030°34'0 0.0
2017-Sep-14 14:19N 36°36' E 030°34'0 0.0
2017-Sep-14 13:58N 36°36' E 030°34'0 0.0
2017-Sep-14 13:25N 36°36' E 030°34'0 0.0
2017-Sep-14 12:58N 36°36' E 030°34'0 0.7
2017-Sep-14 12:30N 36°36' E 030°35'1 1.6
2017-Sep-14 11:35N 36°35' E 030°35'1 7.2
2017-Sep-14 11:30N 36°34' E 030°35'3 2.1
2017-Sep-14 10:17N 36°32' E 030°34'1 0.4
2017-Sep-14 08:25N 36°32' E 030°34'4 7.7
2017-Sep-14 07:57N 36°36' E 030°36'1 2.1
2017-Sep-14 07:29N 36°36' E 030°34'0 0.0
2017-Sep-14 06:59N 36°36' E 030°34'0 0.0
2017-Sep-14 06:29N 36°36' E 030°34'0 0.0
2017-Sep-14 05:59N 36°36' E 030°34'0 0.0
2017-Sep-14 05:29N 36°36' E 030°34'0 0.0
2017-Sep-14 04:59N 36°36' E 030°34'0 0.0
2017-Sep-14 04:29N 36°36' E 030°34'0 0.0
2017-Sep-14 03:56N 36°36' E 030°34'0 0.0
2017-Sep-14 03:23N 36°36' E 030°34'0 0.0
2017-Sep-14 02:59N 36°36' E 030°34'0 0.0
2017-Sep-14 02:26N 36°36' E 030°34'0 0.0
2017-Sep-14 01:59N 36°36' E 030°34'0 0.0
2017-Sep-14 01:23N 36°36' E 030°34'0 0.0
2017-Sep-14 00:56N 36°36' E 030°34'0 0.0
2017-Sep-14 00:17N 36°36' E 030°34'0 0.0
2017-Sep-13 23:56N 36°36' E 030°34'0 0.0
2017-Sep-13 23:29N 36°36' E 030°34'0 0.0
2017-Sep-13 22:59N 36°36' E 030°34'0 0.0
2017-Sep-13 22:29N 36°36' E 030°34'0 0.0
2017-Sep-13 21:56N 36°36' E 030°34'0 0.0
2017-Sep-13 21:29N 36°36' E 030°34'0 0.0
2017-Sep-13 20:59N 36°36' E 030°34'0 0.0
2017-Sep-13 20:29N 36°36' E 030°34'0 0.0
2017-Sep-13 19:59N 36°36' E 030°34'0 0.0
2017-Sep-13 19:29N 36°36' E 030°34'0 0.0
2017-Sep-13 18:53N 36°36' E 030°34'0 0.0
2017-Sep-13 18:29N 36°36' E 030°34'0 0.0
2017-Sep-13 17:59N 36°36' E 030°34'0 0.0
2017-Sep-13 17:29N 36°36' E 030°34'0 0.0
2017-Sep-13 16:59N 36°36' E 030°34'0 0.0
2017-Sep-13 16:29N 36°36' E 030°34'0 0.0
2017-Sep-13 15:59N 36°36' E 030°34'0 0.0
2017-Sep-13 15:29N 36°36' E 030°34'0 0.0
2017-Sep-13 14:59N 36°36' E 030°34'0 0.0
2017-Sep-13 14:29N 36°36' E 030°34'0 0.0
2017-Sep-13 13:59N 36°36' E 030°34'0 0.0
2017-Sep-13 13:29N 36°36' E 030°34'0 0.0
2017-Sep-13 12:59N 36°36' E 030°34'0 0.4
2017-Sep-13 12:29N 36°36' E 030°35'1 2.9
2017-Sep-13 11:59N 36°35' E 030°35'0 0.1
2017-Sep-13 11:24N 36°35' E 030°35'2 5.1
2017-Sep-13 11:00N 36°33' E 030°35'1 0.9
2017-Sep-13 09:42N 36°32' E 030°34'1 4.2
2017-Sep-13 09:30N 36°31' E 030°34'1 0.8
2017-Sep-13 07:58N 36°33' E 030°34'3 7.4
2017-Sep-13 07:30N 36°36' E 030°36'1 1.5
2017-Sep-13 06:52N 36°36' E 030°34'0 0.0
2017-Sep-13 06:28N 36°36' E 030°34'0 0.0
2017-Sep-13 05:58N 36°36' E 030°34'0 0.0
2017-Sep-13 04:31N 36°36' E 030°34'0 0.0
2017-Sep-13 04:25N 36°36' E 030°34'0 0.0
2017-Sep-13 03:58N 36°36' E 030°34'0 0.0
2017-Sep-13 03:22N 36°36' E 030°34'0 0.0
2017-Sep-13 02:58N 36°36' E 030°34'0 0.0
2017-Sep-13 02:19N 36°36' E 030°34'0 0.0
2017-Sep-13 01:55N 36°36' E 030°34'0 0.0
2017-Sep-13 01:28N 36°36' E 030°34'0 0.0
2017-Sep-13 00:55N 36°36' E 030°34'0 0.0
2017-Sep-12 22:13N 36°36' E 030°34'0 0.0
2017-Sep-12 21:37N 36°36' E 030°34'0 0.0
2017-Sep-12 21:25N 36°36' E 030°34'0 0.0
2017-Sep-12 20:58N 36°36' E 030°34'0 0.0
2017-Sep-12 20:16N 36°36' E 030°34'0 0.0
2017-Sep-12 18:52N 36°36' E 030°34'0 0.0
2017-Sep-12 07:04N 36°36' E 030°34'0 0.0
2017-Sep-12 06:58N 36°36' E 030°34'0 0.0
2017-Sep-12 06:28N 36°36' E 030°34'0 0.0
2017-Sep-12 05:55N 36°36' E 030°34'0 0.0
2017-Sep-12 05:28N 36°36' E 030°34'0 0.0
2017-Sep-12 04:58N 36°36' E 030°34'0 0.0
2017-Sep-12 04:28N 36°36' E 030°34'0 0.0
2017-Sep-12 03:58N 36°36' E 030°34'0 0.0
2017-Sep-12 03:25N 36°36' E 030°34'0 0.0
2017-Sep-12 02:58N 36°36' E 030°34'0 0.0
2017-Sep-12 02:28N 36°36' E 030°34'0 0.0
2017-Sep-12 01:58N 36°36' E 030°34'  

Dump ship's entire track history